createdAt,value
2018-04-15T00:00:50.253Z,1013.85
2018-04-15T00:01:50.282Z,1013.87
2018-04-15T00:02:50.295Z,1013.85
2018-04-15T00:03:50.316Z,1013.78
2018-04-15T00:04:50.335Z,1013.79
2018-04-15T00:05:50.358Z,1013.79
2018-04-15T00:06:50.377Z,1013.83
2018-04-15T00:07:50.399Z,1013.79
2018-04-15T00:08:50.417Z,1013.8
2018-04-15T00:09:50.438Z,1013.78
2018-04-15T00:10:50.459Z,1013.79
2018-04-15T00:11:50.479Z,1013.82
2018-04-15T00:13:50.520Z,1013.79
2018-04-15T00:14:50.541Z,1013.79
2018-04-15T00:15:50.568Z,1013.84
2018-04-15T00:16:50.581Z,1013.8
2018-04-15T00:17:50.601Z,1013.8
2018-04-15T00:18:50.623Z,1013.78
2018-04-15T00:19:50.642Z,1013.76
2018-04-15T00:20:50.664Z,1013.78
2018-04-15T00:21:50.685Z,1013.78
2018-04-15T00:22:50.704Z,1013.79
2018-04-15T00:23:50.725Z,1013.79
2018-04-15T00:24:50.746Z,1013.75
2018-04-15T00:25:50.767Z,1013.75
2018-04-15T00:26:50.787Z,1013.73
2018-04-15T00:27:50.807Z,1013.73
2018-04-15T00:29:50.848Z,1013.75
2018-04-15T00:30:50.869Z,1013.82
2018-04-15T00:31:50.989Z,1013.81
2018-04-15T00:32:50.909Z,1013.83
2018-04-15T00:33:50.929Z,1013.83
2018-04-15T00:34:51.008Z,1013.81
2018-04-15T00:35:50.972Z,1013.78
2018-04-15T00:36:50.992Z,1013.82
2018-04-15T00:37:51.012Z,1013.71
2018-04-15T00:38:51.031Z,1013.71
2018-04-15T00:39:51.052Z,1013.68
2018-04-15T00:40:51.071Z,1013.67
2018-04-15T00:41:51.092Z,1013.64
2018-04-15T00:42:51.115Z,1013.61
2018-04-15T00:43:51.131Z,1013.6
2018-04-15T00:45:51.171Z,1013.53
2018-04-15T00:46:51.190Z,1013.51
2018-04-15T00:47:51.212Z,1013.52
2018-04-15T00:48:51.231Z,1013.54
2018-04-15T00:49:51.252Z,1013.54
2018-04-15T00:50:51.271Z,1013.57
2018-04-15T00:51:51.295Z,1013.58
2018-04-15T00:52:51.313Z,1013.64
2018-04-15T00:53:51.332Z,1013.63
2018-04-15T00:54:51.353Z,1013.55
2018-04-15T00:55:51.371Z,1013.59
2018-04-15T00:56:51.394Z,1013.55
2018-04-15T00:57:51.412Z,1013.53
2018-04-15T00:58:51.434Z,1013.53
2018-04-15T00:59:51.452Z,1013.51
2018-04-15T01:01:51.492Z,1013.45
2018-04-15T01:02:51.514Z,1013.41
2018-04-15T01:03:51.533Z,1013.38
2018-04-15T01:04:51.553Z,1013.38
2018-04-15T01:05:51.573Z,1013.43
2018-04-15T01:06:51.594Z,1013.36
2018-04-15T01:07:51.613Z,1013.38
2018-04-15T01:08:51.633Z,1013.36
2018-04-15T01:09:51.654Z,1013.37
2018-04-15T01:10:51.673Z,1013.35
2018-04-15T01:11:51.695Z,1013.37
2018-04-15T01:12:51.713Z,1013.36
2018-04-15T01:13:51.733Z,1013.38
2018-04-15T01:14:51.753Z,1013.37
2018-04-15T01:16:51.795Z,1013.34
2018-04-15T01:17:51.813Z,1013.36
2018-04-15T01:18:51.833Z,1013.31
2018-04-15T01:19:51.854Z,1013.31
2018-04-15T01:20:51.874Z,1013.35
2018-04-15T01:21:51.896Z,1013.38
2018-04-15T01:22:51.911Z,1013.33
2018-04-15T01:23:51.932Z,1013.34
2018-04-15T01:24:51.951Z,1013.35
2018-04-15T01:25:51.971Z,1013.43
2018-04-15T01:26:51.992Z,1013.47
2018-04-15T01:27:52.013Z,1013.38
2018-04-15T01:28:52.029Z,1013.38
2018-04-15T01:29:52.050Z,1013.39
2018-04-15T01:30:52.070Z,1013.39
2018-04-15T01:31:52.091Z,1013.38
2018-04-15T01:32:52.109Z,1013.41
2018-04-15T01:33:52.129Z,1013.34
2018-04-15T01:34:52.149Z,1013.42
2018-04-15T01:35:52.168Z,1013.39
2018-04-15T01:36:52.188Z,1013.39
2018-04-15T01:37:52.209Z,1013.37
2018-04-15T01:38:52.229Z,1013.39
2018-04-15T01:39:52.251Z,1013.4
2018-04-15T01:40:52.268Z,1013.36
2018-04-15T01:41:52.287Z,1013.37
2018-04-15T01:42:52.306Z,1013.32
2018-04-15T01:43:52.326Z,1013.26
2018-04-15T01:44:52.345Z,1013.25
2018-04-15T01:45:52.365Z,1013.21
2018-04-15T01:46:52.384Z,1013.2
2018-04-15T01:48:52.424Z,1013.15
2018-04-15T01:49:52.444Z,1013.2
2018-04-15T01:50:52.463Z,1013.22
2018-04-15T01:51:52.483Z,1013.2
2018-04-15T01:52:52.503Z,1013.13
2018-04-15T01:53:52.523Z,1013.11
2018-04-15T01:54:52.541Z,1013.13
2018-04-15T01:55:52.561Z,1013.05
2018-04-15T01:56:52.582Z,1013.03
2018-04-15T01:57:52.601Z,1013
2018-04-15T01:58:52.620Z,1013.05
2018-04-15T01:59:52.639Z,1012.99
2018-04-15T02:00:52.659Z,1013.03
2018-04-15T02:01:52.678Z,1013
2018-04-15T02:02:52.699Z,1013.01
2018-04-15T02:04:52.738Z,1013.02
2018-04-15T02:05:52.758Z,1013
2018-04-15T02:06:52.778Z,1012.97
2018-04-15T02:07:52.898Z,1012.98
2018-04-15T02:08:52.817Z,1012.97
2018-04-15T02:09:52.837Z,1012.93
2018-04-15T02:10:52.856Z,1012.92
2018-04-15T02:11:52.878Z,1012.92
2018-04-15T02:12:52.897Z,1012.88
2018-04-15T02:13:52.916Z,1012.84
2018-04-15T02:14:52.935Z,1012.83
2018-04-15T02:15:52.955Z,1012.87
2018-04-15T02:16:52.982Z,1012.84
2018-04-15T02:17:52.994Z,1012.86
2018-04-15T02:18:53.014Z,1012.89
2018-04-15T02:20:53.053Z,1012.88
2018-04-15T02:21:53.073Z,1012.85
2018-04-15T02:22:53.092Z,1012.83
2018-04-15T02:23:53.112Z,1012.75
2018-04-15T02:24:53.132Z,1012.75
2018-04-15T02:25:53.151Z,1012.73
2018-04-15T02:26:53.178Z,1012.77
2018-04-15T02:27:53.190Z,1012.74
2018-04-15T02:28:53.210Z,1012.77
2018-04-15T02:29:53.230Z,1012.75
2018-04-15T02:30:53.249Z,1012.8
2018-04-15T02:31:53.269Z,1012.76
2018-04-15T02:32:53.288Z,1012.79
2018-04-15T02:33:53.308Z,1012.81
2018-04-15T02:34:53.327Z,1012.81
2018-04-15T02:36:53.367Z,1012.8
2018-04-15T02:37:53.387Z,1012.83
2018-04-15T02:38:53.406Z,1012.85
2018-04-15T02:39:53.425Z,1012.83
2018-04-15T02:40:53.446Z,1012.81
2018-04-15T02:41:53.465Z,1012.82
2018-04-15T02:42:53.489Z,1012.78
2018-04-15T02:43:53.504Z,1012.82
2018-04-15T02:44:53.525Z,1012.79
2018-04-15T02:45:53.544Z,1012.78
2018-04-15T02:46:53.565Z,1012.77
2018-04-15T02:47:53.584Z,1012.73
2018-04-15T02:48:53.603Z,1012.77
2018-04-15T02:49:53.623Z,1012.74
2018-04-15T02:51:53.662Z,1012.73
2018-04-15T02:52:53.682Z,1012.71
2018-04-15T02:53:53.702Z,1012.73
2018-04-15T02:54:53.722Z,1012.73
2018-04-15T02:55:53.741Z,1012.68
2018-04-15T02:56:53.761Z,1012.64
2018-04-15T02:57:53.781Z,1012.59
2018-04-15T02:58:53.801Z,1012.63
2018-04-15T02:59:53.820Z,1012.57
2018-04-15T03:00:53.839Z,1012.53
2018-04-15T03:01:53.860Z,1012.58
2018-04-15T03:02:53.879Z,1012.52
2018-04-15T03:03:53.905Z,1012.58
2018-04-15T03:04:53.918Z,1012.53
2018-04-15T03:05:53.938Z,1012.5
2018-04-15T03:06:53.969Z,1012.53
2018-04-15T03:07:53.995Z,1012.5
2018-04-15T03:08:53.996Z,1012.48
2018-04-15T03:09:54.018Z,1012.48
2018-04-15T03:10:54.036Z,1012.46
2018-04-15T03:11:54.056Z,1012.52
2018-04-15T03:12:54.076Z,1012.47
2018-04-15T03:13:54.095Z,1012.47
2018-04-15T03:14:54.114Z,1012.47
2018-04-15T03:15:54.134Z,1012.48
2018-04-15T03:16:54.154Z,1012.51
2018-04-15T03:17:54.174Z,1012.45
2018-04-15T03:18:54.193Z,1012.52
2018-04-15T03:19:54.213Z,1012.54
2018-04-15T03:20:54.233Z,1012.56
2018-04-15T03:21:54.252Z,1012.55
2018-04-15T03:23:54.292Z,1012.54
2018-04-15T03:24:54.312Z,1012.51
2018-04-15T03:25:54.331Z,1012.57
2018-04-15T03:26:54.352Z,1012.52
2018-04-15T03:27:54.378Z,1012.54
2018-04-15T03:28:54.391Z,1012.54
2018-04-15T03:29:54.410Z,1012.51
2018-04-15T03:30:54.431Z,1012.55
2018-04-15T03:31:54.451Z,1012.52
2018-04-15T03:32:54.470Z,1012.52
2018-04-15T03:33:54.491Z,1012.49
2018-04-15T03:34:54.510Z,1012.53
2018-04-15T03:35:54.530Z,1012.51
2018-04-15T03:36:54.550Z,1012.57
2018-04-15T03:37:54.568Z,1012.55
2018-04-15T03:39:54.608Z,1012.56
2018-04-15T03:40:54.632Z,1012.59
2018-04-15T03:41:54.647Z,1012.53
2018-04-15T03:42:54.667Z,1012.52
2018-04-15T03:43:54.752Z,1012.55
2018-04-15T03:44:54.706Z,1012.53
2018-04-15T03:45:54.728Z,1012.49
2018-04-15T03:46:54.748Z,1012.58
2018-04-15T03:47:54.766Z,1012.52
2018-04-15T03:48:54.786Z,1012.51
2018-04-15T03:49:54.806Z,1012.48
2018-04-15T03:50:54.826Z,1012.5
2018-04-15T03:51:54.845Z,1012.51
2018-04-15T03:52:54.865Z,1012.5
2018-04-15T03:53:54.894Z,1012.47
2018-04-15T03:55:54.925Z,1012.5
2018-04-15T03:56:54.945Z,1012.54
2018-04-15T03:57:54.965Z,1012.48
2018-04-15T03:58:54.986Z,1012.46
2018-04-15T03:59:55.004Z,1012.41
2018-04-15T04:00:55.026Z,1012.4
2018-04-15T04:01:55.045Z,1012.41
2018-04-15T04:02:55.063Z,1012.4
2018-04-15T04:03:55.083Z,1012.4
2018-04-15T04:04:55.104Z,1012.35
2018-04-15T04:05:55.122Z,1012.3
2018-04-15T04:06:55.143Z,1012.31
2018-04-15T04:07:55.163Z,1012.29
2018-04-15T04:08:55.185Z,1012.3
2018-04-15T04:09:55.203Z,1012.25
2018-04-15T04:11:55.242Z,1012.26
2018-04-15T04:12:55.262Z,1012.24
2018-04-15T04:13:55.280Z,1012.24
2018-04-15T04:14:55.302Z,1012.26
2018-04-15T04:15:55.320Z,1012.28
2018-04-15T04:16:55.440Z,1012.25
2018-04-15T04:17:55.359Z,1012.2
2018-04-15T04:18:55.380Z,1012.23
2018-04-15T04:19:55.399Z,1012.24
2018-04-15T04:20:55.422Z,1012.24
2018-04-15T04:21:55.439Z,1012.26
2018-04-15T04:22:55.458Z,1012.25
2018-04-15T04:23:55.479Z,1012.25
2018-04-15T04:24:55.499Z,1012.2
2018-04-15T04:26:55.539Z,1012.23
2018-04-15T04:27:55.560Z,1012.22
2018-04-15T04:28:55.577Z,1012.24
2018-04-15T04:29:55.598Z,1012.27
2018-04-15T04:30:55.618Z,1012.25
2018-04-15T04:31:55.637Z,1012.25
2018-04-15T04:32:55.660Z,1012.26
2018-04-15T04:33:55.677Z,1012.25
2018-04-15T04:34:55.696Z,1012.24
2018-04-15T04:35:55.716Z,1012.24
2018-04-15T04:36:55.740Z,1012.26
2018-04-15T04:37:55.757Z,1012.25
2018-04-15T04:38:55.778Z,1012.26
2018-04-15T04:39:55.795Z,1012.29
2018-04-15T04:40:55.825Z,1012.3
2018-04-15T04:41:55.836Z,1012.34
2018-04-15T04:42:55.854Z,1012.28
2018-04-15T04:43:55.875Z,1012.3
2018-04-15T04:44:55.902Z,1012.27
2018-04-15T04:45:55.913Z,1012.27
2018-04-15T04:46:55.933Z,1012.25
2018-04-15T04:47:55.953Z,1012.29
2018-04-15T04:48:55.977Z,1012.23
2018-04-15T04:49:55.993Z,1012.21
2018-04-15T04:50:56.013Z,1012.22
2018-04-15T04:51:56.033Z,1012.22
2018-04-15T04:52:56.053Z,1012.22
2018-04-15T04:53:56.072Z,1012.19
2018-04-15T04:54:56.093Z,1012.2
2018-04-15T04:55:56.118Z,1012.13
2018-04-15T04:56:56.131Z,1012.1
2018-04-15T04:58:56.172Z,1012.12
2018-04-15T04:59:56.192Z,1012.09
2018-04-15T05:00:56.210Z,1012.07
2018-04-15T05:01:56.231Z,1012.13
2018-04-15T05:02:56.252Z,1012.11
2018-04-15T05:03:56.272Z,1012.1
2018-04-15T05:04:56.291Z,1012.07
2018-04-15T05:05:56.311Z,1012.06
2018-04-15T05:06:56.331Z,1012.05
2018-04-15T05:07:56.351Z,1012.08
2018-04-15T05:08:56.371Z,1012.08
2018-04-15T05:09:56.391Z,1012.06
2018-04-15T05:10:56.419Z,1012.03
2018-04-15T05:11:56.431Z,1012
2018-04-15T05:12:56.454Z,1012
2018-04-15T05:14:56.491Z,1012.04
2018-04-15T05:15:56.512Z,1012.08
2018-04-15T05:16:56.534Z,1012.08
2018-04-15T05:17:56.553Z,1012.02
2018-04-15T05:18:56.571Z,1011.99
2018-04-15T05:19:56.592Z,1012.01
2018-04-15T05:20:56.612Z,1011.97
2018-04-15T05:21:56.632Z,1012.01
2018-04-15T05:22:56.653Z,1012.04
2018-04-15T05:23:56.673Z,1012.04
2018-04-15T05:24:56.694Z,1012.01
2018-04-15T05:25:56.715Z,1012.06
2018-04-15T05:26:56.734Z,1012.02
2018-04-15T05:27:56.754Z,1012.06
2018-04-15T05:28:56.775Z,1012.04
2018-04-15T05:30:56.816Z,1012.06
2018-04-15T05:31:56.837Z,1012.03
2018-04-15T05:32:56.857Z,1012.02
2018-04-15T05:33:56.877Z,1012.02
2018-04-15T05:34:56.898Z,1012.11
2018-04-15T05:35:56.919Z,1012.09
2018-04-15T05:36:56.940Z,1012.09
2018-04-15T05:37:56.962Z,1012.1
2018-04-15T05:38:56.981Z,1012.07
2018-04-15T05:39:57.000Z,1012.05
2018-04-15T05:40:57.020Z,1012.06
2018-04-15T05:41:57.041Z,1012.07
2018-04-15T05:42:57.062Z,1012.05
2018-04-15T05:43:57.083Z,1012.05
2018-04-15T05:44:57.102Z,1012.06
2018-04-15T05:46:57.143Z,1012.09
2018-04-15T05:47:57.164Z,1012.1
2018-04-15T05:48:57.185Z,1012.14
2018-04-15T05:49:57.205Z,1012.18
2018-04-15T05:50:57.226Z,1012.19
2018-04-15T05:51:57.246Z,1012.19
2018-04-15T05:52:57.266Z,1012.24
2018-04-15T05:53:57.370Z,1012.22
2018-04-15T05:54:57.309Z,1012.24
2018-04-15T05:55:57.328Z,1012.27
2018-04-15T05:56:57.349Z,1012.19
2018-04-15T05:57:57.377Z,1012.21
2018-04-15T05:58:57.390Z,1012.28
2018-04-15T05:59:57.411Z,1012.26
2018-04-15T06:01:57.457Z,1012.21
2018-04-15T06:02:57.472Z,1012.11
2018-04-15T06:03:57.493Z,1012.08
2018-04-15T06:04:57.514Z,1012.03
2018-04-15T06:05:57.534Z,1011.99
2018-04-15T06:06:57.554Z,1011.98
2018-04-15T06:07:57.576Z,1011.95
2018-04-15T06:08:57.597Z,1011.97
2018-04-15T06:09:57.617Z,1011.92
2018-04-15T06:10:57.637Z,1011.95
2018-04-15T06:11:57.659Z,1011.95
2018-04-15T06:12:57.679Z,1011.93
2018-04-15T06:13:57.700Z,1011.88
2018-04-15T06:14:57.774Z,1012.03
2018-04-15T06:15:57.742Z,1011.95
2018-04-15T06:16:57.764Z,1011.88
2018-04-15T06:17:57.784Z,1011.86
2018-04-15T06:18:57.811Z,1011.96
2018-04-15T06:19:57.829Z,1011.91
2018-04-15T06:20:57.847Z,1011.97
2018-04-15T06:21:57.869Z,1011.84
2018-04-15T06:22:57.891Z,1011.91
2018-04-15T06:23:57.913Z,1011.9
2018-04-15T06:24:57.934Z,1011.9
2018-04-15T06:25:57.961Z,1011.85
2018-04-15T06:26:57.979Z,1011.86
2018-04-15T06:27:58.001Z,1011.88
2018-04-15T06:28:58.022Z,1011.9
2018-04-15T06:29:58.044Z,1011.92
2018-04-15T06:30:58.067Z,1011.9
2018-04-15T06:31:58.087Z,1011.88
2018-04-15T06:33:58.131Z,1011.83
2018-04-15T06:34:58.153Z,1011.85
2018-04-15T06:35:58.175Z,1011.82
2018-04-15T06:36:58.196Z,1011.84
2018-04-15T06:37:58.218Z,1011.82
2018-04-15T06:38:58.240Z,1011.85
2018-04-15T06:39:58.266Z,1011.76
2018-04-15T06:40:58.283Z,1011.76
2018-04-15T06:41:58.305Z,1011.75
2018-04-15T06:42:58.325Z,1011.75
2018-04-15T06:43:58.347Z,1011.84
2018-04-15T06:44:58.370Z,1011.73
2018-04-15T06:45:58.392Z,1011.67
2018-04-15T06:46:58.413Z,1011.76
2018-04-15T06:47:58.435Z,1011.55
2018-04-15T06:49:58.479Z,1011.61
2018-04-15T06:50:58.500Z,1011.6
2018-04-15T06:51:58.523Z,1011.64
2018-04-15T06:52:58.548Z,1011.67
2018-04-15T06:53:58.568Z,1011.68
2018-04-15T06:54:58.591Z,1011.7
2018-04-15T06:55:58.613Z,1011.74
2018-04-15T06:56:58.638Z,1011.61
2018-04-15T06:57:58.658Z,1011.71
2018-04-15T06:58:58.681Z,1011.61
2018-04-15T06:59:58.704Z,1011.75
2018-04-15T07:00:58.728Z,1011.69
2018-04-15T07:01:58.748Z,1011.67
2018-04-15T07:02:58.777Z,1011.72
2018-04-15T07:03:58.797Z,1011.77
2018-04-15T07:05:58.841Z,1011.71
2018-04-15T07:06:58.865Z,1011.73
2018-04-15T07:07:58.889Z,1011.72
2018-04-15T07:08:58.911Z,1011.69
2018-04-15T07:09:58.936Z,1011.65
2018-04-15T07:10:58.960Z,1011.64
2018-04-15T07:11:58.983Z,1011.6
2018-04-15T07:12:59.007Z,1011.59
2018-04-15T07:13:59.037Z,1011.59
2018-04-15T07:14:59.055Z,1011.52
2018-04-15T07:15:59.079Z,1011.47
2018-04-15T07:16:59.104Z,1011.46
2018-04-15T07:17:59.129Z,1011.42
2018-04-15T07:18:59.153Z,1011.38
2018-04-15T07:19:59.177Z,1011.41
2018-04-15T07:21:59.227Z,1011.38
2018-04-15T07:22:59.251Z,1011.36
2018-04-15T07:23:59.276Z,1011.33
2018-04-15T07:24:59.301Z,1011.33
2018-04-15T07:25:59.325Z,1011.28
2018-04-15T07:26:59.349Z,1011.25
2018-04-15T07:27:59.376Z,1011.24
2018-04-15T07:28:59.401Z,1011.33
2018-04-15T07:29:59.426Z,1011.3
2018-04-15T07:30:59.453Z,1011.23
2018-04-15T07:31:59.475Z,1011.29
2018-04-15T07:32:59.501Z,1011.26
2018-04-15T07:33:59.526Z,1011.33
2018-04-15T07:34:59.551Z,1011.34
2018-04-15T07:36:59.603Z,1011.3
2018-04-15T07:37:59.628Z,1011.33
2018-04-15T07:38:59.654Z,1011.3
2018-04-15T07:39:59.682Z,1011.25
2018-04-15T07:40:59.706Z,1011.2
2018-04-15T07:41:59.730Z,1011.15
2018-04-15T07:42:59.758Z,1011.17
2018-04-15T07:43:59.789Z,1011.17
2018-04-15T07:44:59.810Z,1011.14
2018-04-15T07:45:59.835Z,1011.13
2018-04-15T07:46:59.862Z,1011.27
2018-04-15T07:47:59.889Z,1011.25
2018-04-15T07:48:59.915Z,1011.18
2018-04-15T07:49:59.942Z,1011.16
2018-04-15T07:50:59.969Z,1011.11
2018-04-15T07:51:59.996Z,1011.06
2018-04-15T07:53:00.022Z,1011.06
2018-04-15T07:54:00.051Z,1011.07
2018-04-15T07:55:00.076Z,1011.07
2018-04-15T07:56:00.101Z,1011.05
2018-04-15T07:57:00.129Z,1011.09
2018-04-15T07:58:00.156Z,1011.05
2018-04-15T07:59:00.183Z,1011.04
2018-04-15T08:00:00.210Z,1011.08
2018-04-15T08:01:00.237Z,1010.97
2018-04-15T08:02:00.265Z,1011.01
2018-04-15T08:03:00.291Z,1011.02
2018-04-15T08:04:00.318Z,1011.01
2018-04-15T08:05:00.348Z,1011
2018-04-15T08:06:00.374Z,1011.01
2018-04-15T08:07:00.401Z,1010.99
2018-04-15T08:09:00.456Z,1010.97
2018-04-15T08:10:00.487Z,1010.99
2018-04-15T08:11:00.510Z,1010.91
2018-04-15T08:12:00.540Z,1010.91
2018-04-15T08:13:00.567Z,1010.93
2018-04-15T08:14:00.594Z,1010.92
2018-04-15T08:15:00.621Z,1010.96
2018-04-15T08:16:00.655Z,1010.95
2018-04-15T08:17:00.677Z,1010.9
2018-04-15T08:18:00.704Z,1010.87
2018-04-15T08:19:00.735Z,1010.8
2018-04-15T08:20:00.760Z,1010.76
2018-04-15T08:21:00.787Z,1010.73
2018-04-15T08:22:00.815Z,1010.72
2018-04-15T08:23:00.842Z,1010.7
2018-04-15T08:25:00.898Z,1010.66
2018-04-15T08:26:00.926Z,1010.64
2018-04-15T08:27:00.954Z,1010.63
2018-04-15T08:28:00.984Z,1010.64
2018-04-15T08:29:01.014Z,1010.68
2018-04-15T08:30:01.041Z,1010.65
2018-04-15T08:31:01.066Z,1010.66
2018-04-15T08:32:01.093Z,1010.67
2018-04-15T08:33:01.120Z,1010.63
2018-04-15T08:34:01.148Z,1010.6
2018-04-15T08:35:01.177Z,1010.53
2018-04-15T08:36:01.204Z,1010.5
2018-04-15T08:37:01.233Z,1010.52
2018-04-15T08:38:01.259Z,1010.51
2018-04-15T08:39:01.288Z,1010.52
2018-04-15T08:41:01.344Z,1010.4
2018-04-15T08:42:01.372Z,1010.43
2018-04-15T08:43:01.400Z,1010.44
2018-04-15T08:44:01.429Z,1010.47
2018-04-15T08:45:01.457Z,1010.44
2018-04-15T08:46:01.484Z,1010.49
2018-04-15T08:47:01.516Z,1010.5
2018-04-15T08:48:01.540Z,1010.51
2018-04-15T08:49:01.569Z,1010.51
2018-04-15T08:50:01.597Z,1010.54
2018-04-15T08:51:01.624Z,1010.52
2018-04-15T08:52:01.656Z,1010.51
2018-04-15T08:53:01.684Z,1010.52
2018-04-15T08:54:01.711Z,1010.5
2018-04-15T08:55:01.739Z,1010.46
2018-04-15T08:57:01.798Z,1010.48
2018-04-15T08:58:01.827Z,1010.46
2018-04-15T08:59:01.857Z,1010.44
2018-04-15T09:00:01.886Z,1010.42
2018-04-15T09:01:01.923Z,1010.44
2018-04-15T09:02:01.947Z,1010.44
2018-04-15T09:03:01.974Z,1010.44
2018-04-15T09:04:02.004Z,1010.41
2018-04-15T09:05:02.035Z,1010.39
2018-04-15T09:06:02.076Z,1010.39
2018-04-15T09:07:02.094Z,1010.32
2018-04-15T09:08:02.133Z,1010.35
2018-04-15T09:09:02.161Z,1010.31
2018-04-15T09:10:02.185Z,1010.31
2018-04-15T09:12:02.246Z,1010.29
2018-04-15T09:13:02.275Z,1010.23
2018-04-15T09:14:02.309Z,1010.22
2018-04-15T09:15:02.336Z,1010.26
2018-04-15T09:16:02.367Z,1010.19
2018-04-15T09:17:02.396Z,1010.19
2018-04-15T09:18:02.426Z,1010.16
2018-04-15T09:19:02.457Z,1010.13
2018-04-15T09:20:02.487Z,1010.19
2018-04-15T09:21:02.517Z,1010.2
2018-04-15T09:22:02.548Z,1010.2
2018-04-15T09:23:02.578Z,1010.14
2018-04-15T09:24:02.617Z,1010.12
2018-04-15T09:25:02.637Z,1010.08
2018-04-15T09:26:02.668Z,1010.06
2018-04-15T09:27:02.708Z,1010.02
2018-04-15T09:28:02.728Z,1009.99
2018-04-15T09:29:02.758Z,1009.96
2018-04-15T09:30:02.806Z,1009.96
2018-04-15T09:31:02.820Z,1009.95
2018-04-15T09:32:02.853Z,1009.94
2018-04-15T09:33:02.880Z,1009.91
2018-04-15T09:34:02.910Z,1009.94
2018-04-15T09:35:02.939Z,1009.87
2018-04-15T09:36:02.971Z,1009.92
2018-04-15T09:37:03.001Z,1009.9
2018-04-15T09:38:03.032Z,1009.93
2018-04-15T09:39:03.064Z,1009.91
2018-04-15T09:40:03.092Z,1009.92
2018-04-15T09:41:03.168Z,1009.91
2018-04-15T09:42:03.152Z,1009.94
2018-04-15T09:44:03.212Z,1009.91
2018-04-15T09:45:03.243Z,1009.92
2018-04-15T09:46:03.272Z,1009.92
2018-04-15T09:47:03.304Z,1009.86
2018-04-15T09:48:03.334Z,1009.85
2018-04-15T09:49:03.364Z,1009.86
2018-04-15T09:50:03.394Z,1009.84
2018-04-15T09:51:03.425Z,1009.85
2018-04-15T09:52:03.455Z,1009.84
2018-04-15T09:53:03.484Z,1009.82
2018-04-15T09:54:03.515Z,1009.85
2018-04-15T09:55:03.546Z,1009.86
2018-04-15T09:56:03.576Z,1009.89
2018-04-15T09:57:03.606Z,1009.87
2018-04-15T09:58:03.637Z,1009.84
2018-04-15T10:00:03.699Z,1009.75
2018-04-15T10:01:03.727Z,1009.78
2018-04-15T10:02:03.758Z,1009.73
2018-04-15T10:03:03.788Z,1009.71
2018-04-15T10:04:03.821Z,1009.72
2018-04-15T10:05:03.849Z,1009.71
2018-04-15T10:06:03.878Z,1009.7
2018-04-15T10:07:03.912Z,1009.68
2018-04-15T10:08:03.939Z,1009.69
2018-04-15T10:09:03.969Z,1009.65
2018-04-15T10:10:03.999Z,1009.67
2018-04-15T10:11:04.030Z,1009.66
2018-04-15T10:12:04.059Z,1009.67
2018-04-15T10:13:04.090Z,1009.65
2018-04-15T10:14:04.120Z,1009.62
2018-04-15T10:16:04.177Z,1009.62
2018-04-15T10:17:04.209Z,1009.62
2018-04-15T10:18:04.244Z,1009.6
2018-04-15T10:19:04.271Z,1009.59
2018-04-15T10:20:04.297Z,1009.54
2018-04-15T10:21:04.331Z,1009.52
2018-04-15T10:22:04.357Z,1009.56
2018-04-15T10:23:04.389Z,1009.52
2018-04-15T10:24:04.480Z,1009.57
2018-04-15T10:25:04.444Z,1009.56
2018-04-15T10:26:04.474Z,1009.58
2018-04-15T10:27:04.506Z,1009.56
2018-04-15T10:28:04.534Z,1009.56
2018-04-15T10:29:04.563Z,1009.55
2018-04-15T10:30:04.692Z,1009.57
2018-04-15T10:32:04.651Z,1009.55
2018-04-15T10:33:04.681Z,1009.49
2018-04-15T10:34:04.710Z,1009.49
2018-04-15T10:35:04.739Z,1009.49
2018-04-15T10:36:04.768Z,1009.48
2018-04-15T10:37:04.798Z,1009.47
2018-04-15T10:38:04.827Z,1009.39
2018-04-15T10:39:04.858Z,1009.39
2018-04-15T10:40:04.887Z,1009.34
2018-04-15T10:41:04.913Z,1009.36
2018-04-15T10:42:04.948Z,1009.29
2018-04-15T10:43:04.975Z,1009.28
2018-04-15T10:44:05.000Z,1009.25
2018-04-15T10:45:05.029Z,1009.19
2018-04-15T10:47:05.086Z,1009.13
2018-04-15T10:48:05.119Z,1009.14
2018-04-15T10:49:05.147Z,1009.1
2018-04-15T10:50:05.170Z,1009.08
2018-04-15T10:51:05.204Z,1009.05
2018-04-15T10:52:05.226Z,1008.98
2018-04-15T10:53:05.256Z,1008.95
2018-04-15T10:54:05.282Z,1008.94
2018-04-15T10:55:05.310Z,1008.93
2018-04-15T10:56:05.392Z,1008.88
2018-04-15T10:57:05.366Z,1008.92
2018-04-15T10:58:05.395Z,1008.9
2018-04-15T10:59:05.423Z,1008.87
2018-04-15T11:00:05.449Z,1008.88
2018-04-15T11:01:05.477Z,1008.86
2018-04-15T11:02:05.505Z,1008.88
2018-04-15T11:03:05.532Z,1008.86
2018-04-15T11:04:05.560Z,1008.85
2018-04-15T11:05:05.588Z,1008.85
2018-04-15T11:06:05.614Z,1008.85
2018-04-15T11:07:05.656Z,1008.85
2018-04-15T11:08:05.671Z,1008.81
2018-04-15T11:09:05.696Z,1008.8
2018-04-15T11:10:05.724Z,1008.71
2018-04-15T11:11:05.751Z,1008.76
2018-04-15T11:12:05.779Z,1008.73
2018-04-15T11:13:05.806Z,1008.68
2018-04-15T11:14:05.942Z,1008.69
2018-04-15T11:15:05.860Z,1008.71
2018-04-15T11:16:05.888Z,1008.73
2018-04-15T11:17:05.914Z,1008.7
2018-04-15T11:19:05.969Z,1008.64
2018-04-15T11:20:06.026Z,1008.7
2018-04-15T11:21:06.026Z,1008.62
2018-04-15T11:22:06.052Z,1008.59
2018-04-15T11:23:06.076Z,1008.58
2018-04-15T11:24:06.109Z,1008.56
2018-04-15T11:25:06.133Z,1008.56
2018-04-15T11:26:06.157Z,1008.57
2018-04-15T11:27:06.183Z,1008.5
2018-04-15T11:28:06.209Z,1008.51
2018-04-15T11:29:06.237Z,1008.55
2018-04-15T11:30:06.269Z,1008.52
2018-04-15T11:31:06.292Z,1008.54
2018-04-15T11:32:06.316Z,1008.51
2018-04-15T11:33:06.343Z,1008.52
2018-04-15T11:35:06.397Z,1008.5
2018-04-15T11:36:06.422Z,1008.55
2018-04-15T11:37:06.452Z,1008.54
2018-04-15T11:38:06.479Z,1008.54
2018-04-15T11:39:06.502Z,1008.5
2018-04-15T11:40:06.529Z,1008.53
2018-04-15T11:41:06.556Z,1008.55
2018-04-15T11:42:06.593Z,1008.55
2018-04-15T11:43:06.610Z,1008.53
2018-04-15T11:44:06.636Z,1008.52
2018-04-15T11:45:06.664Z,1008.55
2018-04-15T11:46:06.691Z,1008.52
2018-04-15T11:47:06.716Z,1008.52
2018-04-15T11:48:06.743Z,1008.5
2018-04-15T11:49:06.770Z,1008.48
2018-04-15T11:51:06.822Z,1008.48
2018-04-15T11:52:06.856Z,1008.51
2018-04-15T11:53:06.876Z,1008.45
2018-04-15T11:54:06.903Z,1008.42
2018-04-15T11:55:06.932Z,1008.43
2018-04-15T11:56:06.956Z,1008.4
2018-04-15T11:57:06.985Z,1008.45
2018-04-15T11:58:07.009Z,1008.43
2018-04-15T11:59:07.037Z,1008.4
2018-04-15T12:00:07.063Z,1008.39
2018-04-15T12:01:07.090Z,1008.44
2018-04-15T12:02:07.115Z,1008.43
2018-04-15T12:03:07.143Z,1008.42
2018-04-15T12:04:07.169Z,1008.44
2018-04-15T12:05:07.196Z,1008.41
2018-04-15T12:07:07.249Z,1008.44
2018-04-15T12:08:07.276Z,1008.41
2018-04-15T12:09:07.301Z,1008.4
2018-04-15T12:10:07.330Z,1008.43
2018-04-15T12:11:07.361Z,1008.42
2018-04-15T12:12:07.381Z,1008.41
2018-04-15T12:13:07.408Z,1008.4
2018-04-15T12:14:07.435Z,1008.38
2018-04-15T12:15:07.462Z,1008.32
2018-04-15T12:16:07.489Z,1008.32
2018-04-15T12:17:07.562Z,1008.3
2018-04-15T12:18:07.542Z,1008.25
2018-04-15T12:19:07.569Z,1008.27
2018-04-15T12:20:07.596Z,1008.26
2018-04-15T12:22:07.651Z,1008.21
2018-04-15T12:23:07.676Z,1008.19
2018-04-15T12:24:07.704Z,1008.17
2018-04-15T12:25:07.737Z,1008.13
2018-04-15T12:26:07.757Z,1008.05
2018-04-15T12:27:07.783Z,1008.1
2018-04-15T12:28:07.814Z,1008.15
2018-04-15T12:29:07.838Z,1008.08
2018-04-15T12:30:07.863Z,1008.07
2018-04-15T12:31:07.890Z,1008.03
2018-04-15T12:32:07.918Z,1008.04
2018-04-15T12:33:07.944Z,1008.04
2018-04-15T12:34:07.971Z,1008.03
2018-04-15T12:35:07.998Z,1007.96
2018-04-15T12:36:08.031Z,1008
2018-04-15T12:37:08.052Z,1007.94
2018-04-15T12:38:08.079Z,1007.91
2018-04-15T12:39:08.105Z,1007.91
2018-04-15T12:40:08.132Z,1007.91
2018-04-15T12:41:08.158Z,1007.9
2018-04-15T12:42:08.185Z,1007.87
2018-04-15T12:43:08.214Z,1007.82
2018-04-15T12:44:08.241Z,1007.82
2018-04-15T12:45:08.266Z,1007.76
2018-04-15T12:46:08.293Z,1007.79
2018-04-15T12:47:08.320Z,1007.75
2018-04-15T12:48:08.347Z,1007.78
2018-04-15T12:49:08.378Z,1007.75